createdAt,value
2023-05-19T00:02:27.311Z,3.30
2023-05-19T00:04:55.072Z,3.00
2023-05-19T00:07:22.452Z,4.65
2023-05-19T00:09:49.725Z,3.53
2023-05-19T00:12:16.989Z,3.42
2023-05-19T00:14:44.367Z,3.95
2023-05-19T00:17:11.656Z,3.80
2023-05-19T00:19:39.643Z,3.40
2023-05-19T00:22:06.900Z,3.90
2023-05-19T00:24:34.277Z,3.72
2023-05-19T00:27:01.560Z,3.25
2023-05-19T00:29:28.866Z,3.85
2023-05-19T00:31:56.247Z,3.22
2023-05-19T00:34:23.676Z,3.45
2023-05-19T00:36:51.902Z,3.08
2023-05-19T00:39:19.197Z,3.40
2023-05-19T00:41:46.526Z,3.40
2023-05-19T00:44:13.807Z,3.45
2023-05-19T00:46:41.534Z,3.53
2023-05-19T00:49:09.107Z,4.32
2023-05-19T00:51:37.232Z,3.17
2023-05-19T00:54:04.526Z,3.00
2023-05-19T00:56:31.788Z,3.25
2023-05-19T00:59:00.662Z,3.08
2023-05-19T01:01:28.239Z,3.17
2023-05-19T01:03:59.102Z,3.10
2023-05-19T01:06:28.143Z,3.08
2023-05-19T01:08:57.484Z,3.17
2023-05-19T01:11:24.831Z,2.80
2023-05-19T01:13:52.169Z,3.00
2023-05-19T01:16:19.619Z,3.00
2023-05-19T01:18:46.958Z,3.15
2023-05-19T01:21:14.317Z,4.15
2023-05-19T01:23:41.577Z,3.33
2023-05-19T01:26:09.332Z,4.55
2023-05-19T01:28:36.596Z,3.78
2023-05-19T01:31:07.414Z,3.05
2023-05-19T01:33:34.750Z,3.60
2023-05-19T01:36:03.107Z,4.47
2023-05-19T01:38:30.718Z,3.42
2023-05-19T01:40:57.954Z,5.10
2023-05-19T01:43:25.250Z,2.83
2023-05-19T01:45:53.171Z,5.00
2023-05-19T01:48:21.708Z,3.80
2023-05-19T01:50:48.966Z,3.42
2023-05-19T01:53:16.292Z,3.05
2023-05-19T01:55:43.530Z,3.60
2023-05-19T01:58:13.932Z,3.30
2023-05-19T02:00:41.274Z,3.20
2023-05-19T02:03:08.584Z,3.13
2023-05-19T02:05:35.913Z,3.25
2023-05-19T02:08:03.165Z,3.45
2023-05-19T02:10:33.889Z,3.15
2023-05-19T02:13:01.331Z,3.05
2023-05-19T02:15:28.758Z,3.28
2023-05-19T02:17:56.088Z,2.95
2023-05-19T02:20:23.366Z,3.28
2023-05-19T02:22:50.725Z,3.55
2023-05-19T02:25:18.833Z,4.32
2023-05-19T02:27:46.550Z,5.32
2023-05-19T02:30:13.853Z,3.90
2023-05-19T02:32:41.188Z,3.97
2023-05-19T02:35:10.128Z,3.70
2023-05-19T02:37:38.030Z,4.07
2023-05-19T02:40:05.368Z,3.90
2023-05-19T02:42:32.637Z,4.13
2023-05-19T02:45:00.065Z,4.57
2023-05-19T02:47:27.391Z,4.40
2023-05-19T02:49:54.722Z,3.97
2023-05-19T02:52:22.482Z,3.75
2023-05-19T02:54:49.782Z,3.58
2023-05-19T02:57:17.126Z,2.97
2023-05-19T02:59:44.552Z,3.50
2023-05-19T03:02:11.972Z,3.45
2023-05-19T03:04:42.248Z,3.47
2023-05-19T03:07:10.308Z,3.47
2023-05-19T03:09:37.584Z,3.90
2023-05-19T03:12:06.638Z,4.45
2023-05-19T03:14:34.342Z,3.63
2023-05-19T03:17:01.825Z,3.85
2023-05-19T03:19:29.221Z,3.60
2023-05-19T03:21:56.616Z,3.92
2023-05-19T03:24:23.853Z,3.20
2023-05-19T03:26:51.652Z,3.35
2023-05-19T03:29:19.439Z,3.55
2023-05-19T03:31:46.745Z,3.03
2023-05-19T03:34:16.069Z,3.53
2023-05-19T03:36:45.053Z,4.38
2023-05-19T03:39:16.074Z,4.13
2023-05-19T03:41:44.457Z,3.95
2023-05-19T03:44:11.994Z,4.35
2023-05-19T03:46:39.358Z,3.72
2023-05-19T03:49:09.231Z,4.32
2023-05-19T03:51:55.227Z,4.05
2023-05-19T03:54:32.834Z,3.72
2023-05-19T03:57:00.133Z,3.75
2023-05-19T03:59:27.450Z,4.35
2023-05-19T04:01:54.757Z,4.65
2023-05-19T04:04:22.143Z,4.25
2023-05-19T04:06:49.569Z,5.32
2023-05-19T04:09:16.913Z,4.70
2023-05-19T04:11:44.234Z,4.90
2023-05-19T04:14:11.529Z,4.90
2023-05-19T04:16:38.912Z,5.40
2023-05-19T04:19:06.390Z,5.88
2023-05-19T04:21:35.899Z,6.40
2023-05-19T04:24:06.685Z,4.38
2023-05-19T04:26:34.977Z,5.60
2023-05-19T04:29:04.741Z,5.60
2023-05-19T04:31:34.438Z,6.03
2023-05-19T04:34:02.701Z,6.20
2023-05-19T04:36:31.352Z,7.18
2023-05-19T04:39:07.108Z,6.18
2023-05-19T04:41:34.849Z,6.72
2023-05-19T04:44:04.124Z,6.80
2023-05-19T04:46:31.490Z,7.07
2023-05-19T04:49:01.316Z,5.95
2023-05-19T04:51:31.526Z,6.05
2023-05-19T04:54:01.645Z,5.45
2023-05-19T04:56:30.103Z,6.30
2023-05-19T04:58:57.862Z,5.25
2023-05-19T05:01:27.343Z,4.85
2023-05-19T05:03:55.996Z,4.75
2023-05-19T05:06:23.767Z,4.93
2023-05-19T05:08:51.176Z,6.10
2023-05-19T05:11:18.787Z,4.53
2023-05-19T05:13:46.968Z,4.97
2023-05-19T05:16:14.871Z,4.68
2023-05-19T05:18:44.681Z,4.65
2023-05-19T05:21:12.707Z,4.95
2023-05-19T05:23:40.867Z,3.95
2023-05-19T05:26:08.201Z,4.65
2023-05-19T05:28:35.588Z,5.70
2023-05-19T05:31:03.168Z,4.22
2023-05-19T05:33:30.898Z,4.22
2023-05-19T05:35:58.412Z,4.50
2023-05-19T05:38:26.877Z,5.03
2023-05-19T05:40:54.279Z,4.63
2023-05-19T05:43:21.646Z,4.93
2023-05-19T05:45:54.516Z,4.53
2023-05-19T05:48:21.915Z,4.43
2023-05-19T05:50:50.412Z,4.07
2023-05-19T05:53:21.563Z,4.90
2023-05-19T05:55:53.640Z,4.65
2023-05-19T05:58:24.328Z,5.22
2023-05-19T06:00:51.848Z,4.78
2023-05-19T06:03:24.522Z,4.88
2023-05-19T06:05:52.726Z,5.00
2023-05-19T06:08:20.217Z,5.80
2023-05-19T06:10:47.963Z,6.00
2023-05-19T06:13:18.894Z,5.55
2023-05-19T06:15:46.711Z,6.47
2023-05-19T06:18:21.789Z,5.60
2023-05-19T06:20:49.207Z,5.53
2023-05-19T06:23:17.224Z,7.10
2023-05-19T06:25:44.518Z,5.97
2023-05-19T06:28:12.382Z,7.70
2023-05-19T06:30:39.856Z,6.70
2023-05-19T06:33:17.320Z,7.00
2023-05-19T06:35:44.931Z,7.30
2023-05-19T06:38:12.270Z,7.13
2023-05-19T06:40:39.766Z,6.45
2023-05-19T06:43:07.098Z,7.10
2023-05-19T06:45:56.039Z,7.75
2023-05-19T06:48:25.763Z,6.22
2023-05-19T06:50:53.085Z,5.95
2023-05-19T06:53:21.390Z,6.57
2023-05-19T06:55:59.249Z,6.25
2023-05-19T06:58:30.897Z,5.90
2023-05-19T07:00:59.803Z,5.43
2023-05-19T07:03:31.851Z,4.88
2023-05-19T07:05:59.804Z,5.30
2023-05-19T07:08:29.023Z,5.70
2023-05-19T07:10:58.036Z,4.90
2023-05-19T07:13:27.346Z,4.97
2023-05-19T07:15:56.956Z,5.50
2023-05-19T07:18:25.804Z,5.15
2023-05-19T07:20:53.864Z,4.80
2023-05-19T07:23:21.769Z,5.07
2023-05-19T07:25:49.120Z,5.05
2023-05-19T07:28:16.382Z,5.20
2023-05-19T07:30:44.206Z,5.03
2023-05-19T07:33:11.473Z,5.07
2023-05-19T07:35:38.861Z,5.03
2023-05-19T07:38:07.453Z,5.50
2023-05-19T07:40:34.949Z,5.47
2023-05-19T07:43:02.351Z,6.65
2023-05-19T07:45:29.746Z,5.70
2023-05-19T07:47:57.197Z,5.63
2023-05-19T07:50:24.606Z,5.20
2023-05-19T07:52:51.870Z,5.20
2023-05-19T07:55:19.289Z,5.75
2023-05-19T07:57:46.728Z,5.50
2023-05-19T08:00:14.153Z,5.05
2023-05-19T08:02:42.347Z,5.63
2023-05-19T08:05:09.760Z,4.97
2023-05-19T08:07:36.992Z,5.88
2023-05-19T08:10:04.403Z,5.47
2023-05-19T08:12:32.535Z,5.93
2023-05-19T08:15:01.384Z,5.97
2023-05-19T08:17:29.336Z,5.47
2023-05-19T08:19:56.591Z,6.95
2023-05-19T08:22:23.852Z,5.80
2023-05-19T08:24:51.920Z,6.00
2023-05-19T08:27:19.241Z,6.75
2023-05-19T08:29:46.498Z,6.45
2023-05-19T08:32:13.779Z,6.00
2023-05-19T08:34:41.377Z,5.18
2023-05-19T08:37:09.147Z,6.00
2023-05-19T08:39:36.785Z,5.88
2023-05-19T08:42:04.343Z,6.22
2023-05-19T08:44:31.725Z,7.07
2023-05-19T08:46:59.017Z,6.68
2023-05-19T08:49:26.305Z,6.72
2023-05-19T08:51:53.594Z,7.90
2023-05-19T08:54:22.480Z,7.72
2023-05-19T08:56:49.798Z,7.05
2023-05-19T08:59:17.189Z,6.97
2023-05-19T09:01:44.506Z,7.10
2023-05-19T09:04:11.855Z,7.43
2023-05-19T09:06:42.439Z,7.72
2023-05-19T09:09:10.323Z,7.25
2023-05-19T09:11:37.848Z,9.40
2023-05-19T09:14:05.220Z,7.57
2023-05-19T09:16:32.969Z,8.23
2023-05-19T09:19:01.332Z,8.35
2023-05-19T09:21:31.202Z,8.27
2023-05-19T09:23:59.275Z,8.45
2023-05-19T09:26:26.561Z,7.18
2023-05-19T09:28:53.876Z,6.75
2023-05-19T09:31:22.631Z,7.10
2023-05-19T09:33:50.038Z,5.97
2023-05-19T09:36:17.301Z,4.85
2023-05-19T09:38:44.650Z,3.88
2023-05-19T09:41:12.062Z,5.20
2023-05-19T09:43:39.331Z,3.90
2023-05-19T09:46:06.982Z,3.80
2023-05-19T09:48:34.769Z,3.60
2023-05-19T09:51:02.437Z,4.68
2023-05-19T09:53:30.417Z,3.60
2023-05-19T09:55:57.980Z,3.50
2023-05-19T09:58:25.318Z,4.13
2023-05-19T10:00:54.636Z,3.30
2023-05-19T10:03:22.486Z,3.63
2023-05-19T10:05:49.828Z,3.38
2023-05-19T10:08:17.916Z,3.40
2023-05-19T10:10:45.193Z,3.08
2023-05-19T10:13:12.559Z,4.00
2023-05-19T10:15:53.672Z,3.65
2023-05-19T10:18:25.271Z,3.90
2023-05-19T10:20:52.532Z,3.65
2023-05-19T10:23:20.188Z,4.85
2023-05-19T10:25:49.194Z,4.22
2023-05-19T10:28:16.841Z,3.58
2023-05-19T10:30:44.128Z,4.22
2023-05-19T10:33:11.456Z,4.35
2023-05-19T10:35:38.989Z,4.45
2023-05-19T10:38:06.509Z,4.68
2023-05-19T10:40:33.915Z,4.40
2023-05-19T10:43:01.452Z,4.63
2023-05-19T10:45:29.143Z,5.10
2023-05-19T10:47:56.526Z,4.63
2023-05-19T10:50:23.850Z,4.07
2023-05-19T10:52:51.143Z,3.65
2023-05-19T10:55:21.673Z,4.70
2023-05-19T10:57:48.918Z,4.88
2023-05-19T11:00:16.235Z,3.60
2023-05-19T11:02:44.245Z,3.33
2023-05-19T11:05:12.956Z,4.22
2023-05-19T11:07:40.296Z,4.38
2023-05-19T11:10:07.870Z,4.82
2023-05-19T11:12:35.222Z,3.33
2023-05-19T11:15:02.405Z,2.70
2023-05-19T11:17:29.882Z,2.83
2023-05-19T11:19:57.330Z,3.17
2023-05-19T11:22:27.605Z,3.63
2023-05-19T11:24:54.990Z,3.20
2023-05-19T11:27:22.306Z,3.20
2023-05-19T11:29:49.714Z,3.55
2023-05-19T11:32:17.152Z,2.67
2023-05-19T11:34:44.668Z,2.88
2023-05-19T11:37:11.988Z,2.83
2023-05-19T11:39:39.479Z,3.10
2023-05-19T11:42:06.778Z,2.58
2023-05-19T11:44:34.201Z,3.83
2023-05-19T11:47:02.105Z,3.63
2023-05-19T11:49:29.669Z,4.93
2023-05-19T11:51:57.037Z,2.90
2023-05-19T11:54:24.338Z,3.05
2023-05-19T11:56:51.586Z,3.30
2023-05-19T11:59:18.928Z,3.08
2023-05-19T12:01:46.425Z,3.15
2023-05-19T12:04:14.126Z,4.18
2023-05-19T12:06:41.744Z,3.42
2023-05-19T12:09:09.326Z,3.20
2023-05-19T12:11:36.625Z,3.55
2023-05-19T12:14:03.973Z,2.83
2023-05-19T12:16:33.442Z,3.25
2023-05-19T12:19:01.171Z,3.03
2023-05-19T12:21:34.317Z,3.20
2023-05-19T12:24:01.956Z,3.47
2023-05-19T12:26:30.272Z,3.20
2023-05-19T12:28:57.658Z,3.08
2023-05-19T12:31:25.103Z,2.80
2023-05-19T12:33:52.522Z,3.10
2023-05-19T12:36:20.306Z,2.22
2023-05-19T12:38:47.892Z,2.80
2023-05-19T12:41:15.265Z,2.60
2023-05-19T12:43:42.669Z,2.90
2023-05-19T12:46:10.111Z,2.70
2023-05-19T12:48:37.383Z,3.08
2023-05-19T12:51:05.630Z,3.35
2023-05-19T12:53:33.158Z,3.20
2023-05-19T12:56:00.368Z,3.53
2023-05-19T12:58:27.713Z,4.18
2023-05-19T13:00:55.616Z,3.42
2023-05-19T13:03:23.269Z,3.88
2023-05-19T13:05:50.881Z,3.90
2023-05-19T13:08:18.379Z,3.85
2023-05-19T13:10:45.975Z,4.07
2023-05-19T13:13:13.234Z,4.47
2023-05-19T13:15:40.499Z,4.60
2023-05-19T13:18:09.197Z,3.75
2023-05-19T13:20:36.511Z,4.32
2023-05-19T13:23:03.807Z,4.85
2023-05-19T13:25:31.114Z,4.53
2023-05-19T13:28:01.439Z,4.45
2023-05-19T13:30:28.781Z,4.88
2023-05-19T13:32:56.283Z,4.68
2023-05-19T13:35:23.644Z,5.18
2023-05-19T13:37:51.013Z,5.30
2023-05-19T13:40:19.013Z,5.50
2023-05-19T13:42:46.325Z,4.60
2023-05-19T13:45:13.615Z,4.20
2023-05-19T13:47:41.057Z,3.50
2023-05-19T13:50:08.372Z,4.78
2023-05-19T13:52:35.650Z,3.88
2023-05-19T13:55:03.776Z,4.78
2023-05-19T13:57:31.166Z,4.55
2023-05-19T14:00:03.310Z,4.00
2023-05-19T14:02:40.951Z,4.25
2023-05-19T14:05:08.729Z,4.20
2023-05-19T14:07:36.087Z,4.22
2023-05-19T14:10:04.150Z,4.13
2023-05-19T14:12:41.271Z,3.67
2023-05-19T14:15:14.971Z,5.38
2023-05-19T14:17:42.370Z,4.22
2023-05-19T14:20:09.899Z,3.90
2023-05-19T14:22:37.178Z,3.40
2023-05-19T14:25:04.636Z,3.78
2023-05-19T14:27:32.001Z,3.97
2023-05-19T14:29:59.332Z,4.43
2023-05-19T14:32:29.454Z,4.55
2023-05-19T14:34:57.605Z,4.20
2023-05-19T14:37:27.569Z,3.88
2023-05-19T14:39:55.546Z,3.50
2023-05-19T14:42:22.833Z,3.72
2023-05-19T14:44:50.480Z,3.72
2023-05-19T14:47:17.785Z,3.92
2023-05-19T14:49:45.126Z,4.25
2023-05-19T14:52:12.436Z,3.70
2023-05-19T14:54:40.328Z,3.58
2023-05-19T14:57:08.660Z,4.63
2023-05-19T14:59:36.647Z,3.80
2023-05-19T15:02:04.726Z,4.68
2023-05-19T15:04:35.045Z,4.72
2023-05-19T15:09:32.649Z,5.60
2023-05-19T15:12:01.298Z,4.05
2023-05-19T15:14:30.586Z,5.25
2023-05-19T15:16:59.246Z,4.20
2023-05-19T15:19:26.810Z,4.60
2023-05-19T15:21:54.377Z,4.63
2023-05-19T15:24:21.699Z,4.65
2023-05-19T15:26:49.106Z,4.63
2023-05-19T15:29:16.430Z,5.00
2023-05-19T15:31:43.982Z,4.60
2023-05-19T15:34:11.294Z,4.60
2023-05-19T15:36:38.966Z,5.03
2023-05-19T15:39:06.556Z,4.60
2023-05-19T15:41:33.825Z,5.05
2023-05-19T15:44:02.306Z,5.13
2023-05-19T15:46:29.657Z,4.50
2023-05-19T15:48:56.952Z,5.78
2023-05-19T15:51:24.297Z,5.43
2023-05-19T15:53:51.598Z,4.85
2023-05-19T15:56:22.556Z,4.03
2023-05-19T15:58:50.161Z,4.32
2023-05-19T16:01:17.566Z,5.00
2023-05-19T16:03:45.302Z,4.43
2023-05-19T16:06:15.912Z,5.68
2023-05-19T16:08:43.282Z,4.95
2023-05-19T16:11:10.678Z,4.75
2023-05-19T16:13:38.038Z,5.03
2023-05-19T16:16:05.570Z,6.75
2023-05-19T16:18:33.003Z,5.60
2023-05-19T16:21:00.422Z,5.80
2023-05-19T16:23:27.795Z,5.35
2023-05-19T16:25:55.294Z,6.63
2023-05-19T16:28:24.995Z,5.80
2023-05-19T16:30:52.540Z,6.22
2023-05-19T16:33:19.913Z,5.70
2023-05-19T16:35:47.272Z,5.97
2023-05-19T16:38:14.558Z,5.28
2023-05-19T16:40:42.057Z,6.30
2023-05-19T16:43:09.454Z,5.47
2023-05-19T16:45:36.885Z,4.88
2023-05-19T16:48:04.304Z,6.45
2023-05-19T16:50:31.666Z,5.70
2023-05-19T16:52:58.945Z,6.75
2023-05-19T16:55:26.998Z,5.68
2023-05-19T16:57:54.330Z,6.30
2023-05-19T17:00:21.801Z,6.28
2023-05-19T17:02:49.327Z,5.50
2023-05-19T17:05:16.870Z,6.40
2023-05-19T17:07:44.395Z,4.82
2023-05-19T17:10:11.802Z,5.22
2023-05-19T17:12:39.128Z,5.60
2023-05-19T17:15:06.532Z,5.50
2023-05-19T17:17:34.233Z,5.50
2023-05-19T17:20:03.251Z,6.68
2023-05-19T17:22:30.923Z,4.75
2023-05-19T17:24:59.365Z,5.47
2023-05-19T17:27:26.688Z,5.05
2023-05-19T17:29:53.970Z,4.45
2023-05-19T17:32:25.931Z,5.05
2023-05-19T17:34:53.390Z,5.50
2023-05-19T17:37:23.560Z,5.85
2023-05-19T17:39:51.112Z,5.35
2023-05-19T17:42:18.436Z,5.63
2023-05-19T17:44:45.851Z,5.40
2023-05-19T17:47:13.213Z,5.38
2023-05-19T17:49:40.726Z,7.03
2023-05-19T17:52:08.063Z,5.63
2023-05-19T17:54:35.399Z,5.13
2023-05-19T17:57:03.431Z,7.10
2023-05-19T17:59:31.440Z,5.35
2023-05-19T18:01:58.833Z,4.78
2023-05-19T18:04:26.182Z,5.97
2023-05-19T18:06:53.601Z,6.55
2023-05-19T18:09:24.594Z,4.97
2023-05-19T18:11:55.017Z,6.82
2023-05-19T18:14:22.478Z,4.28
2023-05-19T18:16:50.138Z,3.92
2023-05-19T18:19:17.618Z,4.50
2023-05-19T18:21:45.592Z,3.92
2023-05-19T18:24:12.897Z,5.28
2023-05-19T18:26:42.279Z,5.60
2023-05-19T18:29:11.089Z,4.68
2023-05-19T18:31:38.776Z,4.72
2023-05-19T18:34:06.214Z,4.25
2023-05-19T18:36:35.517Z,4.57
2023-05-19T18:39:03.510Z,4.40
2023-05-19T18:41:32.923Z,4.25
2023-05-19T18:44:00.320Z,3.80
2023-05-19T18:46:27.764Z,6.50
2023-05-19T18:48:55.423Z,5.20
2023-05-19T18:51:22.772Z,3.97
2023-05-19T18:53:50.197Z,4.88
2023-05-19T18:56:17.450Z,4.32
2023-05-19T18:58:44.870Z,3.78
2023-05-19T19:01:16.412Z,3.90
2023-05-19T19:03:45.028Z,3.55
2023-05-19T19:06:12.263Z,4.63
2023-05-19T19:08:39.722Z,3.78
2023-05-19T19:11:09.799Z,4.50
2023-05-19T19:13:37.168Z,4.15
2023-05-19T19:16:04.421Z,3.60
2023-05-19T19:18:32.032Z,4.18
2023-05-19T19:21:01.436Z,3.42
2023-05-19T19:23:29.459Z,3.67
2023-05-19T19:25:56.776Z,4.53
2023-05-19T19:28:24.106Z,3.10
2023-05-19T19:30:51.548Z,4.22
2023-05-19T19:33:18.920Z,3.30
2023-05-19T19:35:49.452Z,2.90
2023-05-19T19:38:17.359Z,4.07
2023-05-19T19:40:44.750Z,3.42
2023-05-19T19:43:12.109Z,4.07
2023-05-19T19:45:39.663Z,4.50
2023-05-19T19:48:09.705Z,4.30
2023-05-19T19:50:37.159Z,3.78
2023-05-19T19:53:04.513Z,3.95
2023-05-19T19:55:31.966Z,3.88
2023-05-19T19:57:59.455Z,3.30
2023-05-19T20:00:26.743Z,4.18
2023-05-19T20:03:03.430Z,3.38
2023-05-19T20:05:32.086Z,3.33
2023-05-19T20:07:59.434Z,3.22
2023-05-19T20:10:27.005Z,3.75
2023-05-19T20:12:54.352Z,3.38
2023-05-19T20:15:21.806Z,3.65
2023-05-19T20:17:49.147Z,4.78
2023-05-19T20:20:16.569Z,3.47
2023-05-19T20:22:47.015Z,5.25
2023-05-19T20:25:14.406Z,3.63
2023-05-19T20:27:41.607Z,3.72
2023-05-19T20:30:09.005Z,4.22
2023-05-19T20:32:36.659Z,3.72
2023-05-19T20:35:03.981Z,3.53
2023-05-19T20:37:31.290Z,3.92
2023-05-19T20:39:58.644Z,5.45
2023-05-19T20:42:26.113Z,3.58
2023-05-19T20:44:53.644Z,3.97
2023-05-19T20:47:21.201Z,5.57
2023-05-19T20:49:48.662Z,4.80
2023-05-19T20:52:16.142Z,4.40
2023-05-19T20:54:43.550Z,4.53
2023-05-19T20:57:10.990Z,4.50
2023-05-19T20:59:38.673Z,4.43
2023-05-19T21:02:06.513Z,4.50
2023-05-19T21:04:36.491Z,5.72
2023-05-19T21:07:04.194Z,4.88
2023-05-19T21:09:31.595Z,5.90
2023-05-19T21:11:59.114Z,4.90
2023-05-19T21:14:26.652Z,5.82
2023-05-19T21:16:54.390Z,7.43
2023-05-19T21:19:22.100Z,6.38
2023-05-19T21:21:49.709Z,6.00
2023-05-19T21:24:17.532Z,5.47
2023-05-19T21:26:44.975Z,6.03
2023-05-19T21:29:12.355Z,5.53
2023-05-19T21:31:42.671Z,5.72
2023-05-19T21:34:10.358Z,5.78
2023-05-19T21:36:37.620Z,6.03
2023-05-19T21:39:04.906Z,5.93
2023-05-19T21:41:32.572Z,6.10
2023-05-19T21:43:59.965Z,7.45
2023-05-19T21:46:29.171Z,6.13
2023-05-19T21:48:57.077Z,5.32
2023-05-19T21:51:24.435Z,5.57
2023-05-19T21:53:51.783Z,6.03
2023-05-19T21:56:19.021Z,6.20
2023-05-19T21:58:46.336Z,6.30
2023-05-19T22:01:14.448Z,5.78
2023-05-19T22:03:42.093Z,6.10
2023-05-19T22:06:09.494Z,6.53
2023-05-19T22:08:36.897Z,5.75
2023-05-19T22:11:04.459Z,6.40
2023-05-19T22:13:32.123Z,6.35
2023-05-19T22:15:59.508Z,6.85
2023-05-19T22:18:26.913Z,6.32
2023-05-19T22:20:54.173Z,6.30
2023-05-19T22:23:21.684Z,7.07
2023-05-19T22:25:48.959Z,7.45
2023-05-19T22:28:16.308Z,9.32
2023-05-19T22:30:44.263Z,8.18
2023-05-19T22:33:11.797Z,7.50
2023-05-19T22:35:39.426Z,7.75
2023-05-19T22:38:08.883Z,7.07
2023-05-19T22:40:37.877Z,6.85
2023-05-19T22:43:05.308Z,5.55
2023-05-19T22:45:32.912Z,6.43
2023-05-19T22:48:00.864Z,5.60
2023-05-19T22:50:28.153Z,8.05
2023-05-19T22:52:55.585Z,5.72
2023-05-19T22:55:22.933Z,6.18
2023-05-19T22:57:50.266Z,5.88
2023-05-19T23:00:21.079Z,5.63
2023-05-19T23:02:48.454Z,6.00
2023-05-19T23:05:15.808Z,5.18
2023-05-19T23:07:43.244Z,5.30
2023-05-19T23:10:10.675Z,5.95
2023-05-19T23:12:38.132Z,5.25
2023-05-19T23:15:05.384Z,5.18
2023-05-19T23:17:32.823Z,4.60
2023-05-19T23:20:00.128Z,4.85
2023-05-19T23:22:27.438Z,5.40
2023-05-19T23:24:54.782Z,5.45
2023-05-19T23:27:22.103Z,5.35
2023-05-19T23:29:49.384Z,5.90
2023-05-19T23:32:17.022Z,5.40
2023-05-19T23:34:44.750Z,5.40
2023-05-19T23:37:12.231Z,4.88
2023-05-19T23:39:39.650Z,4.90
2023-05-19T23:42:07.281Z,4.93
2023-05-19T23:44:34.905Z,5.13
2023-05-19T23:47:02.291Z,5.13
2023-05-19T23:49:29.673Z,4.95
2023-05-19T23:51:57.047Z,6.22
2023-05-19T23:54:24.625Z,5.57
2023-05-19T23:56:51.929Z,5.25
2023-05-19T23:59:19.393Z,5.38
